sensor_id;sensor_type;location;lat;lon;timestamp;P1;durP1;ratioP1;P2;durP2;ratioP2
23737;SDS011;12049;51.068;3.688;2022-08-03T00:01:36;9.63;;;2.40;;
23737;SDS011;12049;51.068;3.688;2022-08-03T00:04:03;4.97;;;2.20;;
23737;SDS011;12049;51.068;3.688;2022-08-03T00:06:29;11.45;;;2.40;;
23737;SDS011;12049;51.068;3.688;2022-08-03T00:08:55;5.60;;;2.20;;
23737;SDS011;12049;51.068;3.688;2022-08-03T00:11:20;7.10;;;2.00;;
23737;SDS011;12049;51.068;3.688;2022-08-03T00:13:46;6.80;;;2.20;;
23737;SDS011;12049;51.068;3.688;2022-08-03T00:16:12;10.10;;;2.70;;
23737;SDS011;12049;51.068;3.688;2022-08-03T00:18:38;12.23;;;2.13;;
23737;SDS011;12049;51.068;3.688;2022-08-03T00:21:04;6.10;;;2.17;;
23737;SDS011;12049;51.068;3.688;2022-08-03T00:23:31;8.57;;;2.15;;
23737;SDS011;12049;51.068;3.688;2022-08-03T00:25:57;10.95;;;2.45;;
23737;SDS011;12049;51.068;3.688;2022-08-03T00:28:23;9.75;;;2.08;;
23737;SDS011;12049;51.068;3.688;2022-08-03T00:30:49;7.63;;;2.03;;
23737;SDS011;12049;51.068;3.688;2022-08-03T00:33:17;7.90;;;1.90;;
23737;SDS011;12049;51.068;3.688;2022-08-03T00:35:43;8.27;;;2.20;;
23737;SDS011;12049;51.068;3.688;2022-08-03T00:38:09;7.78;;;1.80;;
23737;SDS011;12049;51.068;3.688;2022-08-03T00:40:34;5.13;;;1.85;;
23737;SDS011;12049;51.068;3.688;2022-08-03T00:43:01;9.88;;;2.58;;
23737;SDS011;12049;51.068;3.688;2022-08-03T00:45:29;10.18;;;2.20;;
23737;SDS011;12049;51.068;3.688;2022-08-03T00:47:57;5.10;;;2.00;;
23737;SDS011;12049;51.068;3.688;2022-08-03T00:50:24;8.70;;;2.38;;
23737;SDS011;12049;51.068;3.688;2022-08-03T00:52:51;7.68;;;1.75;;
23737;SDS011;12049;51.068;3.688;2022-08-03T00:55:18;9.55;;;2.10;;
23737;SDS011;12049;51.068;3.688;2022-08-03T00:57:47;6.60;;;1.90;;
23737;SDS011;12049;51.068;3.688;2022-08-03T01:00:14;6.68;;;2.05;;
23737;SDS011;12049;51.068;3.688;2022-08-03T01:02:42;9.52;;;2.00;;
23737;SDS011;12049;51.068;3.688;2022-08-03T01:05:08;7.45;;;2.00;;
23737;SDS011;12049;51.068;3.688;2022-08-03T01:13:33;8.73;;;1.80;;
23737;SDS011;12049;51.068;3.688;2022-08-03T01:16:01;8.13;;;2.33;;
23737;SDS011;12049;51.068;3.688;2022-08-03T01:21:27;7.47;;;1.88;;
23737;SDS011;12049;51.068;3.688;2022-08-03T01:24:02;9.82;;;2.00;;
23737;SDS011;12049;51.068;3.688;2022-08-03T01:27:02;9.30;;;1.88;;
23737;SDS011;12049;51.068;3.688;2022-08-03T01:29:59;8.75;;;2.08;;
23737;SDS011;12049;51.068;3.688;2022-08-03T01:32:34;12.43;;;2.00;;
23737;SDS011;12049;51.068;3.688;2022-08-03T01:35:08;9.27;;;1.70;;
23737;SDS011;12049;51.068;3.688;2022-08-03T01:37:41;7.35;;;1.90;;
23737;SDS011;12049;51.068;3.688;2022-08-03T01:40:11;11.23;;;2.25;;
23737;SDS011;12049;51.068;3.688;2022-08-03T01:42:40;9.68;;;2.10;;
23737;SDS011;12049;51.068;3.688;2022-08-03T01:45:08;8.32;;;1.90;;
23737;SDS011;12049;51.068;3.688;2022-08-03T01:47:36;10.00;;;1.70;;
23737;SDS011;12049;51.068;3.688;2022-08-03T01:50:04;9.38;;;2.03;;
23737;SDS011;12049;51.068;3.688;2022-08-03T01:52:31;8.13;;;1.80;;
23737;SDS011;12049;51.068;3.688;2022-08-03T01:54:57;5.78;;;1.85;;
23737;SDS011;12049;51.068;3.688;2022-08-03T01:57:26;5.60;;;1.83;;
23737;SDS011;12049;51.068;3.688;2022-08-03T01:59:54;4.43;;;1.80;;
23737;SDS011;12049;51.068;3.688;2022-08-03T02:02:21;8.80;;;2.03;;
23737;SDS011;12049;51.068;3.688;2022-08-03T02:04:50;8.25;;;1.83;;
23737;SDS011;12049;51.068;3.688;2022-08-03T02:07:18;6.53;;;1.90;;
23737;SDS011;12049;51.068;3.688;2022-08-03T02:09:45;8.07;;;1.67;;
23737;SDS011;12049;51.068;3.688;2022-08-03T02:14:43;9.02;;;2.35;;
23737;SDS011;12049;51.068;3.688;2022-08-03T02:17:10;8.02;;;1.88;;
23737;SDS011;12049;51.068;3.688;2022-08-03T02:19:38;6.13;;;1.70;;
23737;SDS011;12049;51.068;3.688;2022-08-03T02:22:06;8.52;;;2.00;;
23737;SDS011;12049;51.068;3.688;2022-08-03T02:24:34;6.53;;;1.85;;
23737;SDS011;12049;51.068;3.688;2022-08-03T02:27:00;8.80;;;1.92;;
23737;SDS011;12049;51.068;3.688;2022-08-03T02:29:32;6.93;;;1.80;;
23737;SDS011;12049;51.068;3.688;2022-08-03T02:32:00;12.27;;;1.92;;
23737;SDS011;12049;51.068;3.688;2022-08-03T02:34:28;7.80;;;1.80;;
23737;SDS011;12049;51.068;3.688;2022-08-03T02:36:56;9.20;;;2.00;;
23737;SDS011;12049;51.068;3.688;2022-08-03T02:39:24;8.85;;;1.85;;
23737;SDS011;12049;51.068;3.688;2022-08-03T02:41:54;9.40;;;1.98;;
23737;SDS011;12049;51.068;3.688;2022-08-03T02:44:26;6.07;;;1.98;;
23737;SDS011;12049;51.068;3.688;2022-08-03T02:46:57;10.68;;;2.25;;
23737;SDS011;12049;51.068;3.688;2022-08-03T02:49:28;6.18;;;1.80;;
23737;SDS011;12049;51.068;3.688;2022-08-03T02:51:54;9.10;;;2.13;;
23737;SDS011;12049;51.068;3.688;2022-08-03T02:54:23;6.18;;;2.10;;
23737;SDS011;12049;51.068;3.688;2022-08-03T02:56:53;6.57;;;1.92;;
23737;SDS011;12049;51.068;3.688;2022-08-03T02:59:21;6.72;;;1.88;;
23737;SDS011;12049;51.068;3.688;2022-08-03T03:01:47;12.45;;;2.47;;
23737;SDS011;12049;51.068;3.688;2022-08-03T03:04:14;10.55;;;2.00;;
23737;SDS011;12049;51.068;3.688;2022-08-03T03:06:40;8.00;;;2.15;;
23737;SDS011;12049;51.068;3.688;2022-08-03T03:09:06;8.02;;;2.33;;
23737;SDS011;12049;51.068;3.688;2022-08-03T03:11:37;9.55;;;2.28;;
23737;SDS011;12049;51.068;3.688;2022-08-03T03:14:04;7.55;;;2.00;;
23737;SDS011;12049;51.068;3.688;2022-08-03T03:16:31;11.75;;;2.22;;
23737;SDS011;12049;51.068;3.688;2022-08-03T03:18:57;8.00;;;2.28;;
23737;SDS011;12049;51.068;3.688;2022-08-03T03:21:24;7.60;;;1.88;;
23737;SDS011;12049;51.068;3.688;2022-08-03T03:23:50;7.22;;;2.30;;
23737;SDS011;12049;51.068;3.688;2022-08-03T03:26:17;5.32;;;1.83;;
23737;SDS011;12049;51.068;3.688;2022-08-03T03:28:43;7.68;;;2.13;;
23737;SDS011;12049;51.068;3.688;2022-08-03T03:31:10;6.93;;;2.20;;
23737;SDS011;12049;51.068;3.688;2022-08-03T03:33:36;9.18;;;2.42;;
23737;SDS011;12049;51.068;3.688;2022-08-03T03:36:03;8.27;;;2.83;;
23737;SDS011;12049;51.068;3.688;2022-08-03T03:38:29;6.30;;;2.03;;
23737;SDS011;12049;51.068;3.688;2022-08-03T03:40:55;11.65;;;2.20;;
23737;SDS011;12049;51.068;3.688;2022-08-03T03:43:24;9.75;;;2.25;;
23737;SDS011;12049;51.068;3.688;2022-08-03T03:45:50;9.40;;;1.83;;
23737;SDS011;12049;51.068;3.688;2022-08-03T03:48:17;12.40;;;2.10;;
23737;SDS011;12049;51.068;3.688;2022-08-03T03:50:43;5.38;;;2.03;;
23737;SDS011;12049;51.068;3.688;2022-08-03T03:53:10;5.95;;;1.88;;
23737;SDS011;12049;51.068;3.688;2022-08-03T03:55:36;5.70;;;2.30;;
23737;SDS011;12049;51.068;3.688;2022-08-03T03:58:03;8.43;;;2.03;;
23737;SDS011;12049;51.068;3.688;2022-08-03T04:00:32;11.07;;;2.50;;
23737;SDS011;12049;51.068;3.688;2022-08-03T04:02:58;9.82;;;2.40;;
23737;SDS011;12049;51.068;3.688;2022-08-03T04:05:24;7.70;;;2.00;;
23737;SDS011;12049;51.068;3.688;2022-08-03T04:08:09;8.85;;;2.25;;
23737;SDS011;12049;51.068;3.688;2022-08-03T04:13:30;8.07;;;2.35;;
23737;SDS011;12049;51.068;3.688;2022-08-03T04:16:00;10.00;;;2.00;;
23737;SDS011;12049;51.068;3.688;2022-08-03T04:18:28;9.20;;;2.30;;
23737;SDS011;12049;51.068;3.688;2022-08-03T04:20:58;8.38;;;2.28;;
23737;SDS011;12049;51.068;3.688;2022-08-03T04:23:27;6.70;;;2.08;;
23737;SDS011;12049;51.068;3.688;2022-08-03T04:25:57;8.85;;;2.28;;
23737;SDS011;12049;51.068;3.688;2022-08-03T04:28:25;9.15;;;2.38;;
23737;SDS011;12049;51.068;3.688;2022-08-03T04:30:52;13.52;;;2.53;;
23737;SDS011;12049;51.068;3.688;2022-08-03T04:33:19;8.50;;;2.10;;
23737;SDS011;12049;51.068;3.688;2022-08-03T04:35:47;8.50;;;2.30;;
23737;SDS011;12049;51.068;3.688;2022-08-03T04:38:14;11.02;;;2.55;;
23737;SDS011;12049;51.068;3.688;2022-08-03T04:40:43;14.40;;;2.85;;
23737;SDS011;12049;51.068;3.688;2022-08-03T04:43:11;9.82;;;2.55;;
23737;SDS011;12049;51.068;3.688;2022-08-03T04:45:42;8.43;;;2.55;;
23737;SDS011;12049;51.068;3.688;2022-08-03T04:48:11;6.90;;;2.42;;
23737;SDS011;12049;51.068;3.688;2022-08-03T04:50:38;10.85;;;2.22;;
23737;SDS011;12049;51.068;3.688;2022-08-03T04:53:05;9.30;;;2.75;;
23737;SDS011;12049;51.068;3.688;2022-08-03T04:55:32;10.40;;;2.90;;
23737;SDS011;12049;51.068;3.688;2022-08-03T04:57:58;6.35;;;2.42;;
23737;SDS011;12049;51.068;3.688;2022-08-03T05:00:25;12.48;;;2.65;;
23737;SDS011;12049;51.068;3.688;2022-08-03T05:02:51;13.75;;;2.90;;
23737;SDS011;12049;51.068;3.688;2022-08-03T05:05:20;10.63;;;2.60;;
23737;SDS011;12049;51.068;3.688;2022-08-03T05:07:46;10.82;;;2.83;;
23737;SDS011;12049;51.068;3.688;2022-08-03T05:10:12;10.35;;;3.08;;
23737;SDS011;12049;51.068;3.688;2022-08-03T05:12:38;10.13;;;2.67;;
23737;SDS011;12049;51.068;3.688;2022-08-03T05:15:04;9.13;;;2.30;;
23737;SDS011;12049;51.068;3.688;2022-08-03T05:17:30;10.20;;;2.55;;
23737;SDS011;12049;51.068;3.688;2022-08-03T05:19:58;8.52;;;2.75;;
23737;SDS011;12049;51.068;3.688;2022-08-03T05:22:24;9.90;;;2.63;;
23737;SDS011;12049;51.068;3.688;2022-08-03T05:24:50;10.70;;;2.58;;
23737;SDS011;12049;51.068;3.688;2022-08-03T05:27:15;10.38;;;2.50;;
23737;SDS011;12049;51.068;3.688;2022-08-03T05:29:43;10.07;;;2.50;;
23737;SDS011;12049;51.068;3.688;2022-08-03T05:32:09;7.95;;;2.63;;
23737;SDS011;12049;51.068;3.688;2022-08-03T05:34:35;10.80;;;2.45;;
23737;SDS011;12049;51.068;3.688;2022-08-03T05:37:00;8.40;;;2.55;;
23737;SDS011;12049;51.068;3.688;2022-08-03T05:39:26;11.88;;;2.70;;
23737;SDS011;12049;51.068;3.688;2022-08-03T05:41:51;10.27;;;2.88;;
23737;SDS011;12049;51.068;3.688;2022-08-03T05:44:17;8.35;;;2.58;;
23737;SDS011;12049;51.068;3.688;2022-08-03T05:46:43;9.07;;;2.65;;
23737;SDS011;12049;51.068;3.688;2022-08-03T05:49:08;13.45;;;3.20;;
23737;SDS011;12049;51.068;3.688;2022-08-03T05:51:34;9.57;;;2.30;;
23737;SDS011;12049;51.068;3.688;2022-08-03T05:54:01;7.95;;;2.42;;
23737;SDS011;12049;51.068;3.688;2022-08-03T05:56:26;11.32;;;2.60;;
23737;SDS011;12049;51.068;3.688;2022-08-03T05:58:52;8.43;;;2.47;;
23737;SDS011;12049;51.068;3.688;2022-08-03T06:01:18;13.60;;;2.70;;
23737;SDS011;12049;51.068;3.688;2022-08-03T06:03:48;11.90;;;2.85;;
23737;SDS011;12049;51.068;3.688;2022-08-03T06:06:17;6.65;;;2.20;;
23737;SDS011;12049;51.068;3.688;2022-08-03T06:08:43;11.68;;;2.33;;
23737;SDS011;12049;51.068;3.688;2022-08-03T06:11:10;10.93;;;2.50;;
23737;SDS011;12049;51.068;3.688;2022-08-03T06:13:37;10.43;;;2.50;;
23737;SDS011;12049;51.068;3.688;2022-08-03T06:16:03;11.20;;;2.75;;
23737;SDS011;12049;51.068;3.688;2022-08-03T06:18:29;14.70;;;2.90;;
23737;SDS011;12049;51.068;3.688;2022-08-03T06:20:55;14.95;;;2.72;;
23737;SDS011;12049;51.068;3.688;2022-08-03T06:23:21;11.20;;;2.58;;
23737;SDS011;12049;51.068;3.688;2022-08-03T06:25:47;11.70;;;2.58;;
23737;SDS011;12049;51.068;3.688;2022-08-03T06:28:12;10.50;;;2.85;;
23737;SDS011;12049;51.068;3.688;2022-08-03T06:30:38;9.95;;;2.70;;
23737;SDS011;12049;51.068;3.688;2022-08-03T06:33:05;11.48;;;2.92;;
23737;SDS011;12049;51.068;3.688;2022-08-03T06:35:31;10.77;;;3.15;;
23737;SDS011;12049;51.068;3.688;2022-08-03T06:37:57;12.52;;;2.70;;
23737;SDS011;12049;51.068;3.688;2022-08-03T06:40:23;18.95;;;3.10;;
23737;SDS011;12049;51.068;3.688;2022-08-03T06:42:59;14.75;;;3.40;;
23737;SDS011;12049;51.068;3.688;2022-08-03T06:45:25;16.77;;;3.63;;
23737;SDS011;12049;51.068;3.688;2022-08-03T06:48:05;13.02;;;2.83;;
23737;SDS011;12049;51.068;3.688;2022-08-03T06:50:32;14.80;;;2.97;;
23737;SDS011;12049;51.068;3.688;2022-08-03T06:52:59;13.43;;;2.70;;
23737;SDS011;12049;51.068;3.688;2022-08-03T06:55:25;10.40;;;2.60;;
23737;SDS011;12049;51.068;3.688;2022-08-03T06:57:51;13.00;;;2.90;;
23737;SDS011;12049;51.068;3.688;2022-08-03T07:00:16;15.98;;;2.80;;
23737;SDS011;12049;51.068;3.688;2022-08-03T07:02:43;16.30;;;2.92;;
23737;SDS011;12049;51.068;3.688;2022-08-03T07:05:09;11.02;;;3.25;;
23737;SDS011;12049;51.068;3.688;2022-08-03T07:07:35;15.57;;;2.97;;
23737;SDS011;12049;51.068;3.688;2022-08-03T07:10:01;16.75;;;3.22;;
23737;SDS011;12049;51.068;3.688;2022-08-03T07:12:28;12.40;;;2.60;;
23737;SDS011;12049;51.068;3.688;2022-08-03T07:14:55;16.33;;;2.88;;
23737;SDS011;12049;51.068;3.688;2022-08-03T07:17:21;13.98;;;3.15;;
23737;SDS011;12049;51.068;3.688;2022-08-03T07:19:47;16.15;;;3.00;;
23737;SDS011;12049;51.068;3.688;2022-08-03T07:22:12;12.40;;;3.22;;
23737;SDS011;12049;51.068;3.688;2022-08-03T07:24:38;12.32;;;2.92;;
23737;SDS011;12049;51.068;3.688;2022-08-03T07:27:05;14.35;;;2.97;;
23737;SDS011;12049;51.068;3.688;2022-08-03T07:29:32;19.35;;;3.10;;
23737;SDS011;12049;51.068;3.688;2022-08-03T07:31:58;15.40;;;3.00;;
23737;SDS011;12049;51.068;3.688;2022-08-03T07:34:24;10.98;;;3.00;;
23737;SDS011;12049;51.068;3.688;2022-08-03T07:36:49;17.95;;;3.65;;
23737;SDS011;12049;51.068;3.688;2022-08-03T07:39:15;12.65;;;3.08;;
23737;SDS011;12049;51.068;3.688;2022-08-03T07:41:41;13.23;;;2.97;;
23737;SDS011;12049;51.068;3.688;2022-08-03T07:44:06;13.15;;;3.05;;
23737;SDS011;12049;51.068;3.688;2022-08-03T07:46:32;10.02;;;2.80;;
23737;SDS011;12049;51.068;3.688;2022-08-03T07:48:58;11.35;;;2.97;;
23737;SDS011;12049;51.068;3.688;2022-08-03T07:51:24;12.43;;;3.05;;
23737;SDS011;12049;51.068;3.688;2022-08-03T07:53:49;14.52;;;2.92;;
23737;SDS011;12049;51.068;3.688;2022-08-03T07:56:15;13.65;;;2.92;;
23737;SDS011;12049;51.068;3.688;2022-08-03T07:58:40;8.77;;;2.58;;
23737;SDS011;12049;51.068;3.688;2022-08-03T08:01:06;11.38;;;2.65;;
23737;SDS011;12049;51.068;3.688;2022-08-03T08:03:32;16.65;;;2.88;;
23737;SDS011;12049;51.068;3.688;2022-08-03T08:05:58;10.27;;;2.60;;
23737;SDS011;12049;51.068;3.688;2022-08-03T08:08:23;13.50;;;2.90;;
23737;SDS011;12049;51.068;3.688;2022-08-03T08:10:49;15.90;;;2.75;;
23737;SDS011;12049;51.068;3.688;2022-08-03T08:13:18;13.73;;;3.13;;
23737;SDS011;12049;51.068;3.688;2022-08-03T08:15:43;11.90;;;2.88;;
23737;SDS011;12049;51.068;3.688;2022-08-03T08:18:09;15.65;;;3.20;;
23737;SDS011;12049;51.068;3.688;2022-08-03T08:20:35;10.82;;;2.65;;
23737;SDS011;12049;51.068;3.688;2022-08-03T08:23:07;17.40;;;3.13;;
23737;SDS011;12049;51.068;3.688;2022-08-03T08:25:33;10.57;;;3.05;;
23737;SDS011;12049;51.068;3.688;2022-08-03T08:27:59;16.88;;;3.28;;
23737;SDS011;12049;51.068;3.688;2022-08-03T08:30:26;17.90;;;3.00;;
23737;SDS011;12049;51.068;3.688;2022-08-03T08:32:52;17.05;;;3.20;;
23737;SDS011;12049;51.068;3.688;2022-08-03T08:35:17;13.63;;;3.40;;
23737;SDS011;12049;51.068;3.688;2022-08-03T08:37:43;15.23;;;3.13;;
23737;SDS011;12049;51.068;3.688;2022-08-03T08:40:09;16.60;;;2.90;;
23737;SDS011;12049;51.068;3.688;2022-08-03T08:42:37;15.73;;;2.95;;
23737;SDS011;12049;51.068;3.688;2022-08-03T08:45:03;14.55;;;2.72;;
23737;SDS011;12049;51.068;3.688;2022-08-03T08:47:31;12.52;;;2.70;;
23737;SDS011;12049;51.068;3.688;2022-08-03T08:49:58;12.40;;;2.83;;
23737;SDS011;12049;51.068;3.688;2022-08-03T08:52:28;21.60;;;3.30;;
23737;SDS011;12049;51.068;3.688;2022-08-03T08:54:56;16.95;;;5.10;;
23737;SDS011;12049;51.068;3.688;2022-08-03T08:57:25;13.73;;;3.10;;
23737;SDS011;12049;51.068;3.688;2022-08-03T08:59:57;15.18;;;2.90;;
23737;SDS011;12049;51.068;3.688;2022-08-03T09:02:23;18.58;;;3.60;;
23737;SDS011;12049;51.068;3.688;2022-08-03T09:04:52;17.52;;;2.85;;
23737;SDS011;12049;51.068;3.688;2022-08-03T09:07:18;17.40;;;3.00;;
23737;SDS011;12049;51.068;3.688;2022-08-03T09:09:44;14.68;;;2.78;;
23737;SDS011;12049;51.068;3.688;2022-08-03T09:12:10;14.90;;;3.30;;
23737;SDS011;12049;51.068;3.688;2022-08-03T09:14:35;9.77;;;2.97;;
23737;SDS011;12049;51.068;3.688;2022-08-03T09:17:01;12.25;;;3.00;;
23737;SDS011;12049;51.068;3.688;2022-08-03T09:19:28;12.68;;;2.60;;
23737;SDS011;12049;51.068;3.688;2022-08-03T09:24:34;9.93;;;2.83;;
23737;SDS011;12049;51.068;3.688;2022-08-03T09:27:01;17.30;;;2.67;;
23737;SDS011;12049;51.068;3.688;2022-08-03T09:29:34;12.10;;;2.88;;
23737;SDS011;12049;51.068;3.688;2022-08-03T09:32:03;15.23;;;3.13;;
23737;SDS011;12049;51.068;3.688;2022-08-03T09:34:29;8.25;;;2.47;;
23737;SDS011;12049;51.068;3.688;2022-08-03T09:36:55;13.23;;;2.42;;
23737;SDS011;12049;51.068;3.688;2022-08-03T09:39:23;9.70;;;2.45;;
23737;SDS011;12049;51.068;3.688;2022-08-03T09:42:10;15.43;;;2.92;;
23737;SDS011;12049;51.068;3.688;2022-08-03T09:44:45;14.67;;;2.50;;
23737;SDS011;12049;51.068;3.688;2022-08-03T09:49:39;14.38;;;2.60;;
23737;SDS011;12049;51.068;3.688;2022-08-03T09:52:13;12.20;;;2.80;;
23737;SDS011;12049;51.068;3.688;2022-08-03T09:54:42;12.05;;;2.70;;
23737;SDS011;12049;51.068;3.688;2022-08-03T09:57:18;12.27;;;2.75;;
23737;SDS011;12049;51.068;3.688;2022-08-03T09:59:46;19.55;;;2.70;;
23737;SDS011;12049;51.068;3.688;2022-08-03T10:02:21;6.90;;;2.05;;
23737;SDS011;12049;51.068;3.688;2022-08-03T10:04:49;12.27;;;2.42;;
23737;SDS011;12049;51.068;3.688;2022-08-03T10:07:17;9.43;;;2.30;;
23737;SDS011;12049;51.068;3.688;2022-08-03T10:09:57;11.90;;;2.35;;
23737;SDS011;12049;51.068;3.688;2022-08-03T10:12:24;14.38;;;2.40;;
23737;SDS011;12049;51.068;3.688;2022-08-03T10:14:51;10.63;;;2.30;;
23737;SDS011;12049;51.068;3.688;2022-08-03T10:17:17;9.75;;;2.13;;
23737;SDS011;12049;51.068;3.688;2022-08-03T10:19:44;10.32;;;2.60;;
23737;SDS011;12049;51.068;3.688;2022-08-03T10:22:14;8.35;;;2.33;;
23737;SDS011;12049;51.068;3.688;2022-08-03T10:24:45;8.70;;;2.00;;
23737;SDS011;12049;51.068;3.688;2022-08-03T10:27:21;8.15;;;2.00;;
23737;SDS011;12049;51.068;3.688;2022-08-03T10:29:51;10.88;;;2.38;;
23737;SDS011;12049;51.068;3.688;2022-08-03T10:32:25;9.80;;;2.22;;
23737;SDS011;12049;51.068;3.688;2022-08-03T10:34:58;15.93;;;2.53;;
23737;SDS011;12049;51.068;3.688;2022-08-03T10:37:31;11.35;;;2.53;;
23737;SDS011;12049;51.068;3.688;2022-08-03T10:40:01;15.75;;;2.33;;
23737;SDS011;12049;51.068;3.688;2022-08-03T10:42:27;7.90;;;2.00;;
23737;SDS011;12049;51.068;3.688;2022-08-03T10:44:59;10.85;;;2.40;;
23737;SDS011;12049;51.068;3.688;2022-08-03T10:47:47;8.77;;;2.08;;
23737;SDS011;12049;51.068;3.688;2022-08-03T10:50:15;15.55;;;2.42;;
23737;SDS011;12049;51.068;3.688;2022-08-03T10:52:55;11.27;;;2.45;;
23737;SDS011;12049;51.068;3.688;2022-08-03T10:55:29;12.15;;;2.58;;
23737;SDS011;12049;51.068;3.688;2022-08-03T10:58:25;13.82;;;2.58;;
23737;SDS011;12049;51.068;3.688;2022-08-03T11:01:13;8.75;;;2.00;;
23737;SDS011;12049;51.068;3.688;2022-08-03T11:06:22;10.35;;;1.75;;
23737;SDS011;12049;51.068;3.688;2022-08-03T11:11:34;8.38;;;1.95;;
23737;SDS011;12049;51.068;3.688;2022-08-03T11:14:07;7.95;;;2.40;;
23737;SDS011;12049;51.068;3.688;2022-08-03T11:16:39;10.10;;;1.90;;
23737;SDS011;12049;51.068;3.688;2022-08-03T11:19:06;8.65;;;2.08;;
23737;SDS011;12049;51.068;3.688;2022-08-03T11:35:15;8.55;;;1.90;;
23737;SDS011;12049;51.068;3.688;2022-08-03T11:40:35;8.07;;;1.80;;
23737;SDS011;12049;51.068;3.688;2022-08-03T11:43:01;11.00;;;1.67;;
23737;SDS011;12049;51.068;3.688;2022-08-03T11:45:28;10.75;;;1.90;;
23737;SDS011;12049;51.068;3.688;2022-08-03T11:47:55;8.70;;;1.80;;
23737;SDS011;12049;51.068;3.688;2022-08-03T11:50:23;10.80;;;2.17;;
23737;SDS011;12049;51.068;3.688;2022-08-03T11:52:49;10.45;;;2.00;;
23737;SDS011;12049;51.068;3.688;2022-08-03T11:55:17;9.05;;;1.92;;
23737;SDS011;12049;51.068;3.688;2022-08-03T11:57:48;10.32;;;1.98;;
23737;SDS011;12049;51.068;3.688;2022-08-03T12:00:18;7.85;;;1.67;;
23737;SDS011;12049;51.068;3.688;2022-08-03T12:02:54;6.32;;;2.10;;
23737;SDS011;12049;51.068;3.688;2022-08-03T12:05:36;9.48;;;1.90;;
23737;SDS011;12049;51.068;3.688;2022-08-03T12:08:04;8.93;;;1.95;;
23737;SDS011;12049;51.068;3.688;2022-08-03T12:10:30;9.40;;;1.83;;
23737;SDS011;12049;51.068;3.688;2022-08-03T12:12:57;7.53;;;1.80;;
23737;SDS011;12049;51.068;3.688;2022-08-03T12:15:27;9.10;;;1.60;;
23737;SDS011;12049;51.068;3.688;2022-08-03T12:17:54;6.97;;;1.70;;
23737;SDS011;12049;51.068;3.688;2022-08-03T12:20:22;10.45;;;2.10;;
23737;SDS011;12049;51.068;3.688;2022-08-03T12:22:52;8.95;;;1.60;;
23737;SDS011;12049;51.068;3.688;2022-08-03T12:25:22;9.35;;;1.90;;
23737;SDS011;12049;51.068;3.688;2022-08-03T12:27:50;8.52;;;1.70;;
23737;SDS011;12049;51.068;3.688;2022-08-03T12:30:16;11.05;;;2.25;;
23737;SDS011;12049;51.068;3.688;2022-08-03T12:32:42;7.38;;;1.83;;
23737;SDS011;12049;51.068;3.688;2022-08-03T12:35:09;14.98;;;1.90;;
23737;SDS011;12049;51.068;3.688;2022-08-03T12:37:35;9.77;;;2.00;;
23737;SDS011;12049;51.068;3.688;2022-08-03T12:40:02;8.43;;;1.98;;
23737;SDS011;12049;51.068;3.688;2022-08-03T12:44:57;5.07;;;1.73;;
23737;SDS011;12049;51.068;3.688;2022-08-03T12:47:22;6.75;;;1.90;;
23737;SDS011;12049;51.068;3.688;2022-08-03T12:49:48;7.13;;;1.80;;
23737;SDS011;12049;51.068;3.688;2022-08-03T12:52:19;7.75;;;1.70;;
23737;SDS011;12049;51.068;3.688;2022-08-03T12:54:55;6.72;;;1.75;;
23737;SDS011;12049;51.068;3.688;2022-08-03T12:57:22;8.48;;;1.77;;
23737;SDS011;12049;51.068;3.688;2022-08-03T12:59:48;8.68;;;1.80;;
23737;SDS011;12049;51.068;3.688;2022-08-03T13:02:18;7.07;;;1.77;;
23737;SDS011;12049;51.068;3.688;2022-08-03T13:04:46;8.98;;;1.45;;
23737;SDS011;12049;51.068;3.688;2022-08-03T13:07:13;6.35;;;1.70;;
23737;SDS011;12049;51.068;3.688;2022-08-03T13:12:13;7.10;;;1.52;;
23737;SDS011;12049;51.068;3.688;2022-08-03T13:14:41;6.03;;;1.50;;
23737;SDS011;12049;51.068;3.688;2022-08-03T13:17:08;11.13;;;2.00;;
23737;SDS011;12049;51.068;3.688;2022-08-03T13:19:35;9.20;;;1.42;;
23737;SDS011;12049;51.068;3.688;2022-08-03T13:24:40;8.60;;;1.63;;
23737;SDS011;12049;51.068;3.688;2022-08-03T13:27:07;8.38;;;1.55;;
23737;SDS011;12049;51.068;3.688;2022-08-03T13:29:33;5.47;;;1.88;;
23737;SDS011;12049;51.068;3.688;2022-08-03T13:31:59;7.32;;;2.10;;
23737;SDS011;12049;51.068;3.688;2022-08-03T13:34:26;7.55;;;1.90;;
23737;SDS011;12049;51.068;3.688;2022-08-03T13:36:51;3.88;;;1.60;;
23737;SDS011;12049;51.068;3.688;2022-08-03T13:39:17;7.25;;;1.63;;
23737;SDS011;12049;51.068;3.688;2022-08-03T13:41:46;5.90;;;1.60;;
23737;SDS011;12049;51.068;3.688;2022-08-03T13:44:12;8.27;;;1.60;;
23737;SDS011;12049;51.068;3.688;2022-08-03T13:46:38;13.20;;;1.67;;
23737;SDS011;12049;51.068;3.688;2022-08-03T13:49:04;9.52;;;1.60;;
23737;SDS011;12049;51.068;3.688;2022-08-03T13:51:30;6.72;;;1.67;;
23737;SDS011;12049;51.068;3.688;2022-08-03T13:53:56;7.97;;;1.80;;
23737;SDS011;12049;51.068;3.688;2022-08-03T13:56:23;5.78;;;1.40;;
23737;SDS011;12049;51.068;3.688;2022-08-03T13:58:49;5.85;;;1.63;;
23737;SDS011;12049;51.068;3.688;2022-08-03T14:01:15;6.43;;;1.60;;
23737;SDS011;12049;51.068;3.688;2022-08-03T14:03:41;7.43;;;1.70;;
23737;SDS011;12049;51.068;3.688;2022-08-03T14:06:07;3.83;;;1.25;;
23737;SDS011;12049;51.068;3.688;2022-08-03T14:08:32;6.30;;;1.60;;
23737;SDS011;12049;51.068;3.688;2022-08-03T14:10:58;11.13;;;1.67;;
23737;SDS011;12049;51.068;3.688;2022-08-03T14:13:24;6.25;;;1.80;;
23737;SDS011;12049;51.068;3.688;2022-08-03T14:15:49;5.30;;;1.77;;
23737;SDS011;12049;51.068;3.688;2022-08-03T14:18:16;3.75;;;1.50;;
23737;SDS011;12049;51.068;3.688;2022-08-03T14:20:43;8.27;;;1.60;;
23737;SDS011;12049;51.068;3.688;2022-08-03T14:23:09;3.58;;;1.27;;
23737;SDS011;12049;51.068;3.688;2022-08-03T14:25:34;4.50;;;1.38;;
23737;SDS011;12049;51.068;3.688;2022-08-03T14:28:00;9.38;;;1.48;;
23737;SDS011;12049;51.068;3.688;2022-08-03T14:30:29;5.40;;;1.58;;
23737;SDS011;12049;51.068;3.688;2022-08-03T14:32:55;5.05;;;1.30;;
23737;SDS011;12049;51.068;3.688;2022-08-03T14:35:20;5.35;;;1.30;;
23737;SDS011;12049;51.068;3.688;2022-08-03T14:37:46;6.20;;;1.77;;
23737;SDS011;12049;51.068;3.688;2022-08-03T14:40:12;5.30;;;1.50;;
23737;SDS011;12049;51.068;3.688;2022-08-03T14:42:37;7.82;;;1.50;;
23737;SDS011;12049;51.068;3.688;2022-08-03T14:45:03;3.92;;;1.25;;
23737;SDS011;12049;51.068;3.688;2022-08-03T14:47:29;4.60;;;1.67;;
23737;SDS011;12049;51.068;3.688;2022-08-03T14:49:55;6.47;;;1.42;;
23737;SDS011;12049;51.068;3.688;2022-08-03T14:52:20;7.32;;;1.50;;
23737;SDS011;12049;51.068;3.688;2022-08-03T14:54:46;8.05;;;1.65;;
23737;SDS011;12049;51.068;3.688;2022-08-03T14:57:15;5.28;;;1.35;;
23737;SDS011;12049;51.068;3.688;2022-08-03T14:59:40;4.03;;;1.30;;
23737;SDS011;12049;51.068;3.688;2022-08-03T15:02:06;3.53;;;1.30;;
23737;SDS011;12049;51.068;3.688;2022-08-03T15:04:31;3.30;;;1.17;;
23737;SDS011;12049;51.068;3.688;2022-08-03T15:06:57;5.85;;;1.30;;
23737;SDS011;12049;51.068;3.688;2022-08-03T15:09:22;4.82;;;1.40;;
23737;SDS011;12049;51.068;3.688;2022-08-03T15:11:48;4.50;;;1.60;;
23737;SDS011;12049;51.068;3.688;2022-08-03T15:14:14;6.07;;;1.42;;
23737;SDS011;12049;51.068;3.688;2022-08-03T15:16:40;7.55;;;1.52;;
23737;SDS011;12049;51.068;3.688;2022-08-03T15:19:05;4.90;;;1.35;;
23737;SDS011;12049;51.068;3.688;2022-08-03T15:21:31;7.13;;;1.40;;
23737;SDS011;12049;51.068;3.688;2022-08-03T15:23:56;2.80;;;1.10;;
23737;SDS011;12049;51.068;3.688;2022-08-03T15:26:22;2.78;;;1.23;;
23737;SDS011;12049;51.068;3.688;2022-08-03T15:28:48;6.82;;;1.40;;
23737;SDS011;12049;51.068;3.688;2022-08-03T15:31:13;4.63;;;1.38;;
23737;SDS011;12049;51.068;3.688;2022-08-03T15:33:39;4.97;;;1.60;;
23737;SDS011;12049;51.068;3.688;2022-08-03T15:36:05;6.75;;;1.45;;